sensor_id;sensor_type;location;lat;lon;timestamp;P1;durP1;ratioP1;P2;durP2;ratioP2
68250;SDS011;55066;51.560;4.642;2023-07-30T00:00:39;10.23;;;2.20;;
68250;SDS011;55066;51.560;4.642;2023-07-30T00:03:04;11.90;;;2.00;;
68250;SDS011;55066;51.560;4.642;2023-07-30T00:05:29;8.77;;;2.00;;
68250;SDS011;55066;51.560;4.642;2023-07-30T00:07:55;6.23;;;2.20;;
68250;SDS011;55066;51.560;4.642;2023-07-30T00:10:20;11.80;;;2.15;;
68250;SDS011;55066;51.560;4.642;2023-07-30T00:12:47;8.77;;;2.00;;
68250;SDS011;55066;51.560;4.642;2023-07-30T00:15:12;4.67;;;1.77;;
68250;SDS011;55066;51.560;4.642;2023-07-30T00:17:38;6.43;;;1.80;;
68250;SDS011;55066;51.560;4.642;2023-07-30T00:20:04;4.75;;;1.75;;
68250;SDS011;55066;51.560;4.642;2023-07-30T00:22:31;7.93;;;2.05;;
68250;SDS011;55066;51.560;4.642;2023-07-30T00:24:57;11.43;;;2.00;;
68250;SDS011;55066;51.560;4.642;2023-07-30T00:27:24;8.00;;;1.58;;
68250;SDS011;55066;51.560;4.642;2023-07-30T00:29:49;8.97;;;2.17;;
68250;SDS011;55066;51.560;4.642;2023-07-30T00:32:15;8.83;;;2.07;;
68250;SDS011;55066;51.560;4.642;2023-07-30T00:34:42;6.45;;;1.70;;
68250;SDS011;55066;51.560;4.642;2023-07-30T00:37:08;7.25;;;1.65;;
68250;SDS011;55066;51.560;4.642;2023-07-30T00:39:34;7.27;;;2.30;;
68250;SDS011;55066;51.560;4.642;2023-07-30T00:42:00;11.40;;;2.40;;
68250;SDS011;55066;51.560;4.642;2023-07-30T00:44:25;6.70;;;1.95;;
68250;SDS011;55066;51.560;4.642;2023-07-30T00:46:51;10.03;;;2.30;;
68250;SDS011;55066;51.560;4.642;2023-07-30T00:49:18;9.48;;;2.08;;
68250;SDS011;55066;51.560;4.642;2023-07-30T00:51:44;8.77;;;2.42;;
68250;SDS011;55066;51.560;4.642;2023-07-30T00:54:11;10.10;;;2.42;;
68250;SDS011;55066;51.560;4.642;2023-07-30T00:56:37;9.70;;;2.47;;
68250;SDS011;55066;51.560;4.642;2023-07-30T00:59:06;13.30;;;2.30;;
68250;SDS011;55066;51.560;4.642;2023-07-30T01:01:32;10.67;;;2.40;;
68250;SDS011;55066;51.560;4.642;2023-07-30T01:03:59;14.07;;;2.60;;
68250;SDS011;55066;51.560;4.642;2023-07-30T01:06:24;6.80;;;2.03;;
68250;SDS011;55066;51.560;4.642;2023-07-30T01:08:50;7.30;;;2.30;;
68250;SDS011;55066;51.560;4.642;2023-07-30T01:11:15;12.93;;;2.40;;
68250;SDS011;55066;51.560;4.642;2023-07-30T01:13:42;10.02;;;2.15;;
68250;SDS011;55066;51.560;4.642;2023-07-30T01:16:08;8.40;;;2.83;;
68250;SDS011;55066;51.560;4.642;2023-07-30T01:18:33;10.77;;;2.55;;
68250;SDS011;55066;51.560;4.642;2023-07-30T01:20:59;11.97;;;2.40;;
68250;SDS011;55066;51.560;4.642;2023-07-30T01:23:25;11.32;;;2.15;;
68250;SDS011;55066;51.560;4.642;2023-07-30T01:26:24;12.20;;;2.30;;
68250;SDS011;55066;51.560;4.642;2023-07-30T01:28:48;11.07;;;2.40;;
68250;SDS011;55066;51.560;4.642;2023-07-30T01:31:16;13.05;;;2.28;;
68250;SDS011;55066;51.560;4.642;2023-07-30T01:33:44;11.38;;;2.70;;
68250;SDS011;55066;51.560;4.642;2023-07-30T01:36:14;8.93;;;2.63;;
68250;SDS011;55066;51.560;4.642;2023-07-30T01:38:42;11.87;;;2.50;;
68250;SDS011;55066;51.560;4.642;2023-07-30T01:41:08;10.90;;;2.40;;
68250;SDS011;55066;51.560;4.642;2023-07-30T01:43:34;15.13;;;2.97;;
68250;SDS011;55066;51.560;4.642;2023-07-30T01:46:00;13.10;;;2.60;;
68250;SDS011;55066;51.560;4.642;2023-07-30T01:48:25;12.60;;;2.83;;
68250;SDS011;55066;51.560;4.642;2023-07-30T01:50:51;13.17;;;3.17;;
68250;SDS011;55066;51.560;4.642;2023-07-30T01:53:17;16.63;;;3.08;;
68250;SDS011;55066;51.560;4.642;2023-07-30T01:55:42;14.00;;;3.27;;
68250;SDS011;55066;51.560;4.642;2023-07-30T01:58:09;16.38;;;3.53;;
68250;SDS011;55066;51.560;4.642;2023-07-30T02:00:35;14.75;;;3.42;;
68250;SDS011;55066;51.560;4.642;2023-07-30T02:03:03;12.40;;;3.13;;
68250;SDS011;55066;51.560;4.642;2023-07-30T02:05:29;15.27;;;3.40;;
68250;SDS011;55066;51.560;4.642;2023-07-30T02:07:54;12.83;;;3.10;;
68250;SDS011;55066;51.560;4.642;2023-07-30T02:10:20;11.90;;;3.40;;
68250;SDS011;55066;51.560;4.642;2023-07-30T02:12:45;17.45;;;3.30;;
68250;SDS011;55066;51.560;4.642;2023-07-30T02:15:11;10.13;;;2.90;;
68250;SDS011;55066;51.560;4.642;2023-07-30T02:17:36;14.50;;;3.40;;
68250;SDS011;55066;51.560;4.642;2023-07-30T02:20:02;20.60;;;3.10;;
68250;SDS011;55066;51.560;4.642;2023-07-30T02:22:28;12.87;;;3.03;;
68250;SDS011;55066;51.560;4.642;2023-07-30T02:24:53;14.73;;;3.28;;
68250;SDS011;55066;51.560;4.642;2023-07-30T02:27:18;10.63;;;2.63;;
68250;SDS011;55066;51.560;4.642;2023-07-30T02:29:44;18.10;;;3.30;;
68250;SDS011;55066;51.560;4.642;2023-07-30T02:32:09;15.33;;;3.50;;
68250;SDS011;55066;51.560;4.642;2023-07-30T02:34:35;17.17;;;3.37;;
68250;SDS011;55066;51.560;4.642;2023-07-30T02:37:00;13.33;;;3.40;;
68250;SDS011;55066;51.560;4.642;2023-07-30T02:39:26;15.93;;;3.17;;
68250;SDS011;55066;51.560;4.642;2023-07-30T02:41:51;14.33;;;3.37;;
68250;SDS011;55066;51.560;4.642;2023-07-30T02:44:16;14.90;;;3.30;;
68250;SDS011;55066;51.560;4.642;2023-07-30T02:46:42;10.73;;;2.63;;
68250;SDS011;55066;51.560;4.642;2023-07-30T02:49:07;17.20;;;3.40;;
68250;SDS011;55066;51.560;4.642;2023-07-30T02:51:33;13.15;;;3.60;;
68250;SDS011;55066;51.560;4.642;2023-07-30T02:54:03;16.47;;;3.73;;
68250;SDS011;55066;51.560;4.642;2023-07-30T02:56:30;22.27;;;3.60;;
68250;SDS011;55066;51.560;4.642;2023-07-30T02:58:55;17.23;;;3.90;;
68250;SDS011;55066;51.560;4.642;2023-07-30T03:01:22;13.13;;;3.50;;
68250;SDS011;55066;51.560;4.642;2023-07-30T03:03:48;18.90;;;3.67;;
68250;SDS011;55066;51.560;4.642;2023-07-30T03:06:13;13.00;;;3.90;;
68250;SDS011;55066;51.560;4.642;2023-07-30T03:08:41;16.35;;;4.28;;
68250;SDS011;55066;51.560;4.642;2023-07-30T03:11:07;20.97;;;3.90;;
68250;SDS011;55066;51.560;4.642;2023-07-30T03:13:32;14.30;;;4.17;;
68250;SDS011;55066;51.560;4.642;2023-07-30T03:15:58;14.97;;;4.03;;
68250;SDS011;55066;51.560;4.642;2023-07-30T03:18:23;17.00;;;3.93;;
68250;SDS011;55066;51.560;4.642;2023-07-30T03:20:49;19.33;;;4.13;;
68250;SDS011;55066;51.560;4.642;2023-07-30T03:23:14;18.65;;;3.75;;
68250;SDS011;55066;51.560;4.642;2023-07-30T03:25:40;19.90;;;4.77;;
68250;SDS011;55066;51.560;4.642;2023-07-30T03:28:05;16.00;;;4.20;;
68250;SDS011;55066;51.560;4.642;2023-07-30T03:30:31;19.27;;;4.40;;
68250;SDS011;55066;51.560;4.642;2023-07-30T03:32:56;17.10;;;4.88;;
68250;SDS011;55066;51.560;4.642;2023-07-30T03:35:22;19.07;;;4.87;;
68250;SDS011;55066;51.560;4.642;2023-07-30T03:37:47;17.23;;;4.90;;
68250;SDS011;55066;51.560;4.642;2023-07-30T03:40:13;21.53;;;4.97;;
68250;SDS011;55066;51.560;4.642;2023-07-30T03:42:38;16.23;;;4.60;;
68250;SDS011;55066;51.560;4.642;2023-07-30T03:45:04;20.93;;;5.40;;
68250;SDS011;55066;51.560;4.642;2023-07-30T03:47:30;19.95;;;4.47;;
68250;SDS011;55066;51.560;4.642;2023-07-30T03:49:55;31.27;;;4.77;;
68250;SDS011;55066;51.560;4.642;2023-07-30T03:52:21;15.80;;;4.00;;
68250;SDS011;55066;51.560;4.642;2023-07-30T03:54:46;17.33;;;4.97;;
68250;SDS011;55066;51.560;4.642;2023-07-30T03:57:12;23.77;;;4.95;;
68250;SDS011;55066;51.560;4.642;2023-07-30T03:59:37;19.37;;;4.30;;
68250;SDS011;55066;51.560;4.642;2023-07-30T04:02:03;21.53;;;4.80;;
68250;SDS011;55066;51.560;4.642;2023-07-30T04:04:30;18.35;;;4.38;;
68250;SDS011;55066;51.560;4.642;2023-07-30T04:06:58;19.77;;;4.88;;
68250;SDS011;55066;51.560;4.642;2023-07-30T04:09:24;25.10;;;4.47;;
68250;SDS011;55066;51.560;4.642;2023-07-30T04:11:49;17.50;;;4.30;;
68250;SDS011;55066;51.560;4.642;2023-07-30T04:14:15;21.70;;;5.27;;
68250;SDS011;55066;51.560;4.642;2023-07-30T04:16:40;18.95;;;4.95;;
68250;SDS011;55066;51.560;4.642;2023-07-30T04:19:06;19.57;;;4.93;;
68250;SDS011;55066;51.560;4.642;2023-07-30T04:21:32;18.70;;;5.00;;
68250;SDS011;55066;51.560;4.642;2023-07-30T04:23:57;29.37;;;6.50;;
68250;SDS011;55066;51.560;4.642;2023-07-30T04:26:23;18.63;;;4.53;;
68250;SDS011;55066;51.560;4.642;2023-07-30T04:28:48;15.67;;;4.87;;
68250;SDS011;55066;51.560;4.642;2023-07-30T04:31:14;23.35;;;5.75;;
68250;SDS011;55066;51.560;4.642;2023-07-30T04:33:39;30.53;;;6.70;;
68250;SDS011;55066;51.560;4.642;2023-07-30T04:36:05;21.93;;;5.50;;
68250;SDS011;55066;51.560;4.642;2023-07-30T04:38:32;19.05;;;6.32;;
68250;SDS011;55066;51.560;4.642;2023-07-30T04:40:58;19.67;;;5.55;;
68250;SDS011;55066;51.560;4.642;2023-07-30T04:43:24;21.25;;;5.38;;
68250;SDS011;55066;51.560;4.642;2023-07-30T04:45:54;20.77;;;5.57;;
68250;SDS011;55066;51.560;4.642;2023-07-30T04:48:19;20.10;;;5.63;;
68250;SDS011;55066;51.560;4.642;2023-07-30T04:50:45;15.33;;;5.33;;
68250;SDS011;55066;51.560;4.642;2023-07-30T04:53:11;20.67;;;6.28;;
68250;SDS011;55066;51.560;4.642;2023-07-30T04:55:36;21.20;;;4.77;;
68250;SDS011;55066;51.560;4.642;2023-07-30T04:58:02;21.63;;;5.50;;
68250;SDS011;55066;51.560;4.642;2023-07-30T05:00:28;20.08;;;5.13;;
68250;SDS011;55066;51.560;4.642;2023-07-30T05:02:54;18.23;;;4.70;;
68250;SDS011;55066;51.560;4.642;2023-07-30T05:05:21;20.00;;;4.13;;
68250;SDS011;55066;51.560;4.642;2023-07-30T05:07:46;14.87;;;4.20;;
68250;SDS011;55066;51.560;4.642;2023-07-30T05:10:12;21.05;;;4.25;;
68250;SDS011;55066;51.560;4.642;2023-07-30T05:12:37;20.77;;;3.67;;
68250;SDS011;55066;51.560;4.642;2023-07-30T05:15:03;25.33;;;4.13;;
68250;SDS011;55066;51.560;4.642;2023-07-30T05:17:31;15.60;;;3.63;;
68250;SDS011;55066;51.560;4.642;2023-07-30T05:19:57;21.33;;;3.83;;
68250;SDS011;55066;51.560;4.642;2023-07-30T05:22:22;19.60;;;3.37;;
68250;SDS011;55066;51.560;4.642;2023-07-30T05:24:49;21.30;;;3.65;;
68250;SDS011;55066;51.560;4.642;2023-07-30T05:27:14;16.30;;;3.77;;
68250;SDS011;55066;51.560;4.642;2023-07-30T05:29:40;18.40;;;3.57;;
68250;SDS011;55066;51.560;4.642;2023-07-30T05:32:05;11.90;;;3.10;;
68250;SDS011;55066;51.560;4.642;2023-07-30T05:34:31;16.58;;;3.22;;
68250;SDS011;55066;51.560;4.642;2023-07-30T05:36:57;14.07;;;2.60;;
68250;SDS011;55066;51.560;4.642;2023-07-30T05:39:22;15.95;;;3.28;;
68250;SDS011;55066;51.560;4.642;2023-07-30T05:41:47;21.30;;;3.63;;
68250;SDS011;55066;51.560;4.642;2023-07-30T05:44:14;18.33;;;3.42;;
68250;SDS011;55066;51.560;4.642;2023-07-30T05:46:39;17.23;;;3.13;;
68250;SDS011;55066;51.560;4.642;2023-07-30T05:49:05;16.80;;;3.83;;
68250;SDS011;55066;51.560;4.642;2023-07-30T05:51:30;22.10;;;4.13;;
68250;SDS011;55066;51.560;4.642;2023-07-30T05:53:55;23.67;;;4.30;;
68250;SDS011;55066;51.560;4.642;2023-07-30T05:56:21;20.77;;;3.53;;
68250;SDS011;55066;51.560;4.642;2023-07-30T05:58:47;12.70;;;3.53;;
68250;SDS011;55066;51.560;4.642;2023-07-30T06:01:13;16.58;;;3.30;;
68250;SDS011;55066;51.560;4.642;2023-07-30T06:03:38;23.10;;;4.23;;
68250;SDS011;55066;51.560;4.642;2023-07-30T06:06:04;27.53;;;4.60;;
68250;SDS011;55066;51.560;4.642;2023-07-30T06:08:29;28.33;;;4.40;;
68250;SDS011;55066;51.560;4.642;2023-07-30T06:11:00;18.47;;;4.43;;
68250;SDS011;55066;51.560;4.642;2023-07-30T06:13:28;21.08;;;4.45;;
68250;SDS011;55066;51.560;4.642;2023-07-30T06:15:55;17.80;;;4.20;;
68250;SDS011;55066;51.560;4.642;2023-07-30T06:18:22;20.47;;;4.33;;
68250;SDS011;55066;51.560;4.642;2023-07-30T06:20:47;20.95;;;4.30;;
68250;SDS011;55066;51.560;4.642;2023-07-30T06:23:13;18.67;;;4.30;;
68250;SDS011;55066;51.560;4.642;2023-07-30T06:25:38;18.48;;;4.10;;
68250;SDS011;55066;51.560;4.642;2023-07-30T06:28:04;18.27;;;4.53;;
68250;SDS011;55066;51.560;4.642;2023-07-30T06:30:31;17.85;;;4.72;;
68250;SDS011;55066;51.560;4.642;2023-07-30T06:32:56;25.00;;;4.60;;
68250;SDS011;55066;51.560;4.642;2023-07-30T06:35:22;23.30;;;5.30;;
68250;SDS011;55066;51.560;4.642;2023-07-30T06:37:49;26.63;;;4.93;;
68250;SDS011;55066;51.560;4.642;2023-07-30T06:40:15;21.75;;;5.20;;
68250;SDS011;55066;51.560;4.642;2023-07-30T06:42:41;23.53;;;4.90;;
68250;SDS011;55066;51.560;4.642;2023-07-30T06:45:06;18.23;;;4.27;;
68250;SDS011;55066;51.560;4.642;2023-07-30T06:47:33;18.88;;;3.80;;
68250;SDS011;55066;51.560;4.642;2023-07-30T06:49:58;20.30;;;4.30;;
68250;SDS011;55066;51.560;4.642;2023-07-30T06:52:23;14.50;;;4.03;;
68250;SDS011;55066;51.560;4.642;2023-07-30T06:54:49;24.17;;;4.57;;
68250;SDS011;55066;51.560;4.642;2023-07-30T06:57:14;24.50;;;4.57;;
68250;SDS011;55066;51.560;4.642;2023-07-30T06:59:40;20.27;;;4.10;;
68250;SDS011;55066;51.560;4.642;2023-07-30T07:02:05;19.63;;;3.80;;
68250;SDS011;55066;51.560;4.642;2023-07-30T07:04:31;23.47;;;3.93;;
68250;SDS011;55066;51.560;4.642;2023-07-30T07:06:56;14.63;;;3.97;;
68250;SDS011;55066;51.560;4.642;2023-07-30T07:09:22;24.77;;;4.20;;
68250;SDS011;55066;51.560;4.642;2023-07-30T07:11:47;20.77;;;3.53;;
68250;SDS011;55066;51.560;4.642;2023-07-30T07:14:13;15.97;;;3.50;;
68250;SDS011;55066;51.560;4.642;2023-07-30T07:16:38;11.97;;;3.53;;
68250;SDS011;55066;51.560;4.642;2023-07-30T07:19:04;17.37;;;3.50;;
68250;SDS011;55066;51.560;4.642;2023-07-30T07:21:29;21.10;;;3.75;;
68250;SDS011;55066;51.560;4.642;2023-07-30T07:23:55;17.17;;;3.67;;
68250;SDS011;55066;51.560;4.642;2023-07-30T07:26:20;16.97;;;3.63;;
68250;SDS011;55066;51.560;4.642;2023-07-30T07:28:46;17.20;;;3.55;;
68250;SDS011;55066;51.560;4.642;2023-07-30T07:31:11;15.27;;;3.67;;
68250;SDS011;55066;51.560;4.642;2023-07-30T07:33:37;19.70;;;3.83;;
68250;SDS011;55066;51.560;4.642;2023-07-30T07:36:05;15.00;;;3.80;;
68250;SDS011;55066;51.560;4.642;2023-07-30T07:38:32;22.33;;;3.80;;
68250;SDS011;55066;51.560;4.642;2023-07-30T07:40:59;13.10;;;3.25;;
68250;SDS011;55066;51.560;4.642;2023-07-30T07:43:25;12.82;;;3.55;;
68250;SDS011;55066;51.560;4.642;2023-07-30T07:45:51;19.55;;;4.65;;
68250;SDS011;55066;51.560;4.642;2023-07-30T07:48:17;16.47;;;4.73;;
68250;SDS011;55066;51.560;4.642;2023-07-30T07:50:42;17.17;;;4.40;;
68250;SDS011;55066;51.560;4.642;2023-07-30T07:53:08;17.23;;;4.60;;
68250;SDS011;55066;51.560;4.642;2023-07-30T07:55:33;10.93;;;3.53;;
68250;SDS011;55066;51.560;4.642;2023-07-30T07:58:00;18.10;;;4.18;;
68250;SDS011;55066;51.560;4.642;2023-07-30T08:00:25;15.83;;;4.10;;
68250;SDS011;55066;51.560;4.642;2023-07-30T08:02:50;15.97;;;4.13;;
68250;SDS011;55066;51.560;4.642;2023-07-30T08:05:16;16.10;;;3.40;;
68250;SDS011;55066;51.560;4.642;2023-07-30T08:07:43;17.08;;;4.03;;
68250;SDS011;55066;51.560;4.642;2023-07-30T08:10:10;14.73;;;3.50;;
68250;SDS011;55066;51.560;4.642;2023-07-30T08:12:36;11.90;;;3.40;;
68250;SDS011;55066;51.560;4.642;2023-07-30T08:15:01;13.53;;;3.50;;
68250;SDS011;55066;51.560;4.642;2023-07-30T08:17:27;17.25;;;3.20;;
68250;SDS011;55066;51.560;4.642;2023-07-30T08:19:52;15.33;;;3.23;;
68250;SDS011;55066;51.560;4.642;2023-07-30T08:22:18;14.40;;;3.70;;
68250;SDS011;55066;51.560;4.642;2023-07-30T08:24:43;15.13;;;3.47;;
68250;SDS011;55066;51.560;4.642;2023-07-30T08:27:09;13.73;;;3.13;;
68250;SDS011;55066;51.560;4.642;2023-07-30T08:29:34;17.30;;;3.43;;
68250;SDS011;55066;51.560;4.642;2023-07-30T08:32:00;13.30;;;3.33;;
68250;SDS011;55066;51.560;4.642;2023-07-30T08:34:26;14.90;;;3.63;;
68250;SDS011;55066;51.560;4.642;2023-07-30T08:36:51;12.90;;;3.60;;
68250;SDS011;55066;51.560;4.642;2023-07-30T08:39:17;14.97;;;3.27;;
68250;SDS011;55066;51.560;4.642;2023-07-30T08:41:43;13.18;;;3.38;;
68250;SDS011;55066;51.560;4.642;2023-07-30T08:44:09;15.18;;;3.65;;
68250;SDS011;55066;51.560;4.642;2023-07-30T08:46:34;14.77;;;3.00;;
68250;SDS011;55066;51.560;4.642;2023-07-30T08:49:00;15.80;;;3.08;;
68250;SDS011;55066;51.560;4.642;2023-07-30T08:51:25;13.10;;;3.10;;
68250;SDS011;55066;51.560;4.642;2023-07-30T08:53:51;15.77;;;3.23;;
68250;SDS011;55066;51.560;4.642;2023-07-30T08:56:17;16.00;;;2.72;;
68250;SDS011;55066;51.560;4.642;2023-07-30T08:58:43;14.00;;;2.50;;
68250;SDS011;55066;51.560;4.642;2023-07-30T09:01:10;14.63;;;2.58;;
68250;SDS011;55066;51.560;4.642;2023-07-30T09:03:37;14.02;;;3.10;;
68250;SDS011;55066;51.560;4.642;2023-07-30T09:06:04;17.87;;;2.73;;
68250;SDS011;55066;51.560;4.642;2023-07-30T09:08:29;13.88;;;3.25;;
68250;SDS011;55066;51.560;4.642;2023-07-30T09:10:57;11.80;;;2.60;;
68250;SDS011;55066;51.560;4.642;2023-07-30T09:13:31;12.00;;;2.30;;
68250;SDS011;55066;51.560;4.642;2023-07-30T09:16:07;19.08;;;3.67;;
68250;SDS011;55066;51.560;4.642;2023-07-30T09:18:38;12.13;;;2.38;;
68250;SDS011;55066;51.560;4.642;2023-07-30T09:21:04;11.27;;;3.13;;
68250;SDS011;55066;51.560;4.642;2023-07-30T09:23:30;6.37;;;2.03;;
68250;SDS011;55066;51.560;4.642;2023-07-30T09:25:57;10.23;;;2.03;;
68250;SDS011;55066;51.560;4.642;2023-07-30T09:28:30;11.07;;;2.47;;
68250;SDS011;55066;51.560;4.642;2023-07-30T09:31:05;9.80;;;2.28;;
68250;SDS011;55066;51.560;4.642;2023-07-30T09:33:32;9.27;;;1.70;;
68250;SDS011;55066;51.560;4.642;2023-07-30T09:36:00;11.73;;;2.17;;
68250;SDS011;55066;51.560;4.642;2023-07-30T09:38:27;9.10;;;2.22;;
68250;SDS011;55066;51.560;4.642;2023-07-30T09:40:59;5.45;;;1.70;;
68250;SDS011;55066;51.560;4.642;2023-07-30T09:43:32;7.88;;;1.90;;
68250;SDS011;55066;51.560;4.642;2023-07-30T09:46:01;8.77;;;2.17;;
68250;SDS011;55066;51.560;4.642;2023-07-30T09:48:29;11.98;;;2.10;;
68250;SDS011;55066;51.560;4.642;2023-07-30T09:50:57;9.75;;;1.95;;
68250;SDS011;55066;51.560;4.642;2023-07-30T09:53:24;11.77;;;2.65;;
68250;SDS011;55066;51.560;4.642;2023-07-30T09:55:50;9.70;;;2.07;;
68250;SDS011;55066;51.560;4.642;2023-07-30T09:58:16;10.65;;;2.67;;
68250;SDS011;55066;51.560;4.642;2023-07-30T10:00:42;12.10;;;2.47;;
68250;SDS011;55066;51.560;4.642;2023-07-30T10:03:09;10.03;;;2.20;;
68250;SDS011;55066;51.560;4.642;2023-07-30T10:05:37;8.82;;;2.05;;
68250;SDS011;55066;51.560;4.642;2023-07-30T10:08:12;7.43;;;1.90;;
68250;SDS011;55066;51.560;4.642;2023-07-30T10:10:44;8.90;;;3.20;;
68250;SDS011;55066;51.560;4.642;2023-07-30T10:13:11;10.27;;;3.50;;
68250;SDS011;55066;51.560;4.642;2023-07-30T10:15:38;8.13;;;2.57;;
68250;SDS011;55066;51.560;4.642;2023-07-30T10:18:04;13.02;;;3.67;;
68250;SDS011;55066;51.560;4.642;2023-07-30T10:20:30;8.82;;;2.05;;
68250;SDS011;55066;51.560;4.642;2023-07-30T10:22:59;5.30;;;1.45;;
68250;SDS011;55066;51.560;4.642;2023-07-30T10:25:29;7.73;;;1.60;;
68250;SDS011;55066;51.560;4.642;2023-07-30T10:28:11;9.23;;;1.95;;
68250;SDS011;55066;51.560;4.642;2023-07-30T10:30:55;7.78;;;1.80;;
68250;SDS011;55066;51.560;4.642;2023-07-30T10:33:22;12.00;;;1.63;;
68250;SDS011;55066;51.560;4.642;2023-07-30T10:35:47;5.93;;;1.57;;
68250;SDS011;55066;51.560;4.642;2023-07-30T10:43:43;5.85;;;1.67;;
68250;SDS011;55066;51.560;4.642;2023-07-30T10:46:13;6.97;;;1.90;;
68250;SDS011;55066;51.560;4.642;2023-07-30T10:48:40;8.05;;;1.58;;
68250;SDS011;55066;51.560;4.642;2023-07-30T10:51:16;12.70;;;1.60;;
68250;SDS011;55066;51.560;4.642;2023-07-30T10:53:43;8.25;;;1.38;;
68250;SDS011;55066;51.560;4.642;2023-07-30T10:56:13;9.13;;;1.15;;
68250;SDS011;55066;51.560;4.642;2023-07-30T10:58:40;5.43;;;1.60;;
68250;SDS011;55066;51.560;4.642;2023-07-30T11:01:08;11.18;;;1.33;;
68250;SDS011;55066;51.560;4.642;2023-07-30T11:03:34;7.10;;;1.20;;
68250;SDS011;55066;51.560;4.642;2023-07-30T11:06:01;5.93;;;1.17;;
68250;SDS011;55066;51.560;4.642;2023-07-30T11:08:34;7.78;;;1.55;;
68250;SDS011;55066;51.560;4.642;2023-07-30T11:11:07;4.47;;;1.00;;
68250;SDS011;55066;51.560;4.642;2023-07-30T11:13:35;6.43;;;1.00;;
68250;SDS011;55066;51.560;4.642;2023-07-30T11:16:05;5.97;;;1.33;;
68250;SDS011;55066;51.560;4.642;2023-07-30T11:18:32;5.60;;;1.30;;
68250;SDS011;55066;51.560;4.642;2023-07-30T11:23:30;4.30;;;0.90;;
68250;SDS011;55066;51.560;4.642;2023-07-30T11:25:55;6.90;;;1.27;;
68250;SDS011;55066;51.560;4.642;2023-07-30T11:28:27;7.93;;;1.20;;
68250;SDS011;55066;51.560;4.642;2023-07-30T11:33:36;5.88;;;1.17;;
68250;SDS011;55066;51.560;4.642;2023-07-30T11:36:03;5.10;;;1.00;;
68250;SDS011;55066;51.560;4.642;2023-07-30T11:38:29;4.63;;;1.10;;
68250;SDS011;55066;51.560;4.642;2023-07-30T11:40:56;7.72;;;1.15;;
68250;SDS011;55066;51.560;4.642;2023-07-30T11:43:22;8.35;;;1.48;;
68250;SDS011;55066;51.560;4.642;2023-07-30T11:45:48;9.67;;;1.20;;
68250;SDS011;55066;51.560;4.642;2023-07-30T11:48:30;6.97;;;1.67;;
68250;SDS011;55066;51.560;4.642;2023-07-30T11:50:56;13.00;;;4.77;;
68250;SDS011;55066;51.560;4.642;2023-07-30T11:53:21;6.35;;;1.30;;
68250;SDS011;55066;51.560;4.642;2023-07-30T11:55:46;10.50;;;2.67;;
68250;SDS011;55066;51.560;4.642;2023-07-30T11:58:12;5.63;;;1.20;;
68250;SDS011;55066;51.560;4.642;2023-07-30T12:00:41;7.18;;;1.15;;
68250;SDS011;55066;51.560;4.642;2023-07-30T12:03:11;4.22;;;1.02;;
68250;SDS011;55066;51.560;4.642;2023-07-30T12:05:39;3.93;;;0.80;;
68250;SDS011;55066;51.560;4.642;2023-07-30T12:08:06;5.70;;;0.80;;
68250;SDS011;55066;51.560;4.642;2023-07-30T12:13:19;6.77;;;0.90;;
68250;SDS011;55066;51.560;4.642;2023-07-30T12:15:54;5.55;;;0.95;;
68250;SDS011;55066;51.560;4.642;2023-07-30T12:18:21;3.78;;;0.98;;
68250;SDS011;55066;51.560;4.642;2023-07-30T12:20:49;6.28;;;0.90;;
68250;SDS011;55066;51.560;4.642;2023-07-30T12:23:16;4.85;;;1.08;;
68250;SDS011;55066;51.560;4.642;2023-07-30T12:25:42;3.17;;;0.83;;
68250;SDS011;55066;51.560;4.642;2023-07-30T12:28:08;4.20;;;1.00;;
68250;SDS011;55066;51.560;4.642;2023-07-30T12:30:33;5.77;;;1.20;;
68250;SDS011;55066;51.560;4.642;2023-07-30T12:33:00;7.10;;;1.13;;
68250;SDS011;55066;51.560;4.642;2023-07-30T12:35:26;5.87;;;1.20;;
68250;SDS011;55066;51.560;4.642;2023-07-30T12:37:51;4.63;;;0.73;;
68250;SDS011;55066;51.560;4.642;2023-07-30T12:40:17;5.87;;;1.10;;
68250;SDS011;55066;51.560;4.642;2023-07-30T12:42:42;4.37;;;1.03;;
68250;SDS011;55066;51.560;4.642;2023-07-30T12:45:08;3.63;;;0.80;;
68250;SDS011;55066;51.560;4.642;2023-07-30T12:47:33;4.53;;;1.20;;
68250;SDS011;55066;51.560;4.642;2023-07-30T12:50:03;5.88;;;0.70;;
68250;SDS011;55066;51.560;4.642;2023-07-30T12:52:29;1.63;;;0.65;;
68250;SDS011;55066;51.560;4.642;2023-07-30T12:54:55;6.18;;;1.25;;
68250;SDS011;55066;51.560;4.642;2023-07-30T12:57:21;4.67;;;0.80;;
68250;SDS011;55066;51.560;4.642;2023-07-30T12:59:46;4.93;;;1.00;;
68250;SDS011;55066;51.560;4.642;2023-07-30T13:02:12;6.33;;;0.97;;
68250;SDS011;55066;51.560;4.642;2023-07-30T13:04:37;6.23;;;1.20;;
68250;SDS011;55066;51.560;4.642;2023-07-30T13:07:03;4.10;;;0.88;;
68250;SDS011;55066;51.560;4.642;2023-07-30T13:09:28;5.23;;;1.33;;
68250;SDS011;55066;51.560;4.642;2023-07-30T13:11:55;6.95;;;1.58;;
68250;SDS011;55066;51.560;4.642;2023-07-30T13:14:20;8.10;;;1.80;;
68250;SDS011;55066;51.560;4.642;2023-07-30T13:16:46;6.50;;;1.43;;
68250;SDS011;55066;51.560;4.642;2023-07-30T13:19:11;9.00;;;1.40;;
68250;SDS011;55066;51.560;4.642;2023-07-30T13:21:37;7.97;;;1.90;;
68250;SDS011;55066;51.560;4.642;2023-07-30T13:24:02;7.87;;;1.37;;
68250;SDS011;55066;51.560;4.642;2023-07-30T13:26:28;7.00;;;1.13;;
68250;SDS011;55066;51.560;4.642;2023-07-30T13:28:53;6.97;;;1.50;;
68250;SDS011;55066;51.560;4.642;2023-07-30T13:31:19;10.23;;;2.00;;
68250;SDS011;55066;51.560;4.642;2023-07-30T13:33:44;8.50;;;1.60;;
68250;SDS011;55066;51.560;4.642;2023-07-30T13:36:13;11.23;;;1.55;;
68250;SDS011;55066;51.560;4.642;2023-07-30T13:38:39;7.15;;;1.55;;
68250;SDS011;55066;51.560;4.642;2023-07-30T13:41:06;6.10;;;1.30;;
68250;SDS011;55066;51.560;4.642;2023-07-30T13:43:32;10.57;;;1.57;;
68250;SDS011;55066;51.560;4.642;2023-07-30T13:45:57;6.03;;;1.43;;
68250;SDS011;55066;51.560;4.642;2023-07-30T13:48:24;10.20;;;1.50;;
68250;SDS011;55066;51.560;4.642;2023-07-30T13:50:50;6.95;;;1.30;;
68250;SDS011;55066;51.560;4.642;2023-07-30T13:53:15;6.40;;;1.30;;
68250;SDS011;55066;51.560;4.642;2023-07-30T13:55:41;7.80;;;1.33;;
68250;SDS011;55066;51.560;4.642;2023-07-30T13:58:06;6.93;;;1.47;;
68250;SDS011;55066;51.560;4.642;2023-07-30T14:00:32;6.90;;;1.23;;
68250;SDS011;55066;51.560;4.642;2023-07-30T14:02:57;6.23;;;1.80;;
68250;SDS011;55066;51.560;4.642;2023-07-30T14:05:23;9.30;;;1.40;;
68250;SDS011;55066;51.560;4.642;2023-07-30T14:07:48;6.18;;;1.20;;
68250;SDS011;55066;51.560;4.642;2023-07-30T14:10:16;6.93;;;1.30;;
68250;SDS011;55066;51.560;4.642;2023-07-30T14:12:42;5.80;;;1.50;;
68250;SDS011;55066;51.560;4.642;2023-07-30T14:15:07;6.00;;;1.70;;
68250;SDS011;55066;51.560;4.642;2023-07-30T14:17:33;6.80;;;1.48;;
68250;SDS011;55066;51.560;4.642;2023-07-30T14:19:59;4.83;;;1.47;;
68250;SDS011;55066;51.560;4.642;2023-07-30T14:22:24;6.17;;;1.50;;
68250;SDS011;55066;51.560;4.642;2023-07-30T14:24:50;6.82;;;1.50;;
68250;SDS011;55066;51.560;4.642;2023-07-30T14:27:15;6.83;;;1.83;;
68250;SDS011;55066;51.560;4.642;2023-07-30T14:29:41;9.67;;;1.70;;
68250;SDS011;55066;51.560;4.642;2023-07-30T14:32:06;9.73;;;2.57;;
68250;SDS011;55066;51.560;4.642;2023-07-30T14:34:32;13.88;;;2.92;;
68250;SDS011;55066;51.560;4.642;2023-07-30T14:36:57;8.40;;;2.10;;
68250;SDS011;55066;51.560;4.642;2023-07-30T14:39:22;8.17;;;1.93;;
68250;SDS011;55066;51.560;4.642;2023-07-30T14:41:48;6.50;;;2.10;;
68250;SDS011;55066;51.560;4.642;2023-07-30T14:44:13;10.57;;;1.83;;
68250;SDS011;55066;51.560;4.642;2023-07-30T14:46:39;6.40;;;1.63;;